ADDS METAR Data INFO
IDs: Format: Raw Decoded Include TAF

Data at: 2107 UTC 19 Jul 2018

PGUM 192054Z 02006KT 3SM BR FEW023 SCT050 BKN085 27/27 A2981 RMK AO2 RAE38 SLP085 P0009 60016 T02670267 53016
PGUM 191954Z 06005KT 6SM RA BR FEW022 BKN046 BKN080 27/27 A2978 RMK AO2 RAB06 SLP075 P0007 T02720272
PGUM 191854Z 01005KT 10SM FEW080 27/27 A2976 RMK AO2 SLP070 T02720272
PGUM 191754Z 01003KT 10SM CLR 27/27 A2976 RMK AO2 RAB20E35 SLP069 P0004 60004 T02670267 10272 20267 55008
PGUM 191654Z 35004KT 10SM CLR 27/27 A2976 RMK AO2 SLP068 T02720267
PGUM 191554Z 36005KT 10SM FEW049 SCT080 BKN100 27/27 A2977 RMK AO2 SLP073 T02720272
PGUM 191454Z 02005KT 10SM CLR 27/27 A2978 RMK AO2 SLP078 T02670267 58015
PGUM 191354Z 01006KT 10SM CLR 27/27 A2980 RMK AO2 SLP083 T02670267 403170256
PGUM 191254Z 01006KT 10SM FEW008 27/27 A2983 RMK AO2 SLP092 T02670267
PGUM 191241Z 36007KT 10SM FEW008 SCT085 27/27 A2983 RMK AO2 T02670267
PGUM 191154Z 35005KT 10SM CLR 27/27 A2983 RMK AO2 RAB12E27 SLP093 P0002 60052 70095 T02670267 10306 20261 51006
PGUM 191054Z 36006KT 10SM FEW022 FEW027 SCT034 27/27 A2983 RMK AO2 RAB0957E48 SLP093 P0017 T02670267
PGUM 191019Z 02009KT 5SM -RA BR SCT009 BKN070 OVC080 27/27 A2983 RMK AO2 RAB0957 P0001 T02720267
PGUM 191007Z 36008KT 8SM -RA SCT009 BKN019 OVC075 27/27 A2982 RMK AO2 RAB0957 P0000 T02720272
PGUM 191004Z 35009KT 7SM -RA BKN007 BKN018 OVC060 27/27 A2982 RMK AO2 RAB0957 P0000 T02720272
PGUM 190954Z 34008KT 8SM SCT007 BKN023 OVC055 27/27 A2982 RMK AO2 RAE52 SLP089 P0028 T02720272
PGUM 190942Z 36008KT 8SM -RA SCT007 BKN047 OVC060 27/27 A2982 RMK AO2 P0028 T02720272
PGUM 190929Z 35006KT 8SM RA SCT011 BKN037 OVC060 27/27 A2981 RMK AO2 P0027 T02670267
PGUM 190918Z 36007KT 2 1/2SM -RA BR SCT011 SCT027 OVC034 27/27 A2981 RMK AO2 P0022 T02720267
PGUM 190912Z 36004KT 3SM -RA BR FEW011 BKN027 OVC044 27/27 A2981 RMK AO2 P0022 T02670267
PGUM 190907Z 32003KT 1SM +RA BR BKN018 BKN028 OVC046 27/27 A2981 RMK AO2 P0022 T02670267
PGUM 190900Z 03008KT 2 1/2SM RA BR FEW012 BKN029 OVC046 27/27 A2982 RMK AO2 P0000 T02720267
PGUM 190854Z 36007KT 10SM -RA SCT012 BKN021 OVC046 27/27 A2981 RMK AO2 RAE18B49 SLP086 P0004 60005 T02720272 53016
PGUM 190834Z 34009KT 5SM BR FEW009 BKN013 OVC022 27/27 A2980 RMK AO2 RAE18 P0004 T02720272
PGUM 190754Z 35016G20KT 6SM RA BR SCT008 BKN023 OVC070 28/28 A2978 RMK AO2 RAB31 SLP075 P0001 T02780278
PGUM 190751Z 31011G18KT 4SM -RA BR FEW008 BKN025 OVC070 28/28 A2977 RMK AO2 RAB31 P0000
PGUM 190736Z 34007KT 8SM -RA FEW015 BKN038 OVC075 28/27 A2977 RMK AO2 RAB31 P0000 T02830272
PGUM 190729Z 34012KT 9SM BKN017 BKN029 BKN038 29/27 A2977 RMK AO2 CIG 010V025 T02890267
PGUM 190654Z 33009KT 10SM FEW013 SCT065 30/28 A2977 RMK AO2 SLP072 T03000278
PGUM 190554Z 35014KT 10SM FEW022 SCT030 SCT060 31/27 A2976 RMK AO2 SLP071 60043 T03060272 10317 20278 56012
PGUM 190454Z 36011KT 10SM CLR 31/27 A2977 RMK AO2 SLP072 T03060272
PGUM 190354Z 35012KT 10SM FEW015 BKN034 OVC055 31/28 A2978 RMK AO2 RAE28 SLP075 P0032 T03060283
PGUM 190344Z 34011KT 10SM SCT019 BKN027 OVC047 29/28 A2978 RMK AO2 RAE28 P0032 T02940278
PGUM 190330Z COR 25003KT 10SM SCT015 BKN021 OVC035 28/27 A2979 RMK AO2 RAB36 SLP083 P0011 60011 T02830272 58008
PGUM 190254Z COR 25003KT 10SM SCT015 BKN021 OVC035 28/27 A2979 RMK AO2 RAB36 SLP083 P0011 60011 T02830272 58008
PGUM 190244Z VRB05KT 5SM RA BKN018 OVC023 29/26 A2980 RMK AO2 RAB36 P0010 T02890261
PGUM 190237Z COR 12005KT 5 -RA BR BKN018 OVC023 28/26 A2981 RMK AO2 RAB36 P0000 T02830261
PGUM 190154Z VRB05KT 10SM SCT017 BKN026 OVC070 30/27 A2982 RMK AO2 RAB36E45 SLP088 P0000 T03000267
PGUM 190054Z 31009KT 10SM FEW020 FEW070 32/27 A2982 RMK AO2 SLP089 T03170272
PGUM 182354Z 35007KT 10SM FEW015 30/27 A2983 RMK AO2 SLP091 T03000272 10311 20256 51010
PGUM 182254Z 35007KT 10SM FEW013 29/27 A2982 RMK AO2 SLP090 T02940272
PGUM 182154Z 35003KT 10SM CLR 29/27 A2981 RMK AO2 SLP085 T02890272
PGUM 182054Z 00000KT 10SM CLR 27/26 A2979 RMK AO2 SLP081 T02720261 53003
PGUM 181954Z 00000KT 10SM CLR 26/26 A2978 RMK AO2 SLP077 T02610256
PGUM 181854Z 00000KT 10SM FEW050 26/26 A2978 RMK AO2 SLP076 T02610256
PGUM 181754Z 04006KT 10SM FEW060 27/26 A2978 RMK AO2 SLP078 T02720261 10289 20267 58012
PGUM 181654Z 06003KT 10SM CLR 28/26 A2980 RMK AO2 SLP082 T02780261
PGUM 181554Z 00000KT 10SM CLR 28/26 A2981 RMK AO2 SLP085 T02780261
PGUM 181454Z 32003KT 10SM CLR 27/26 A2982 RMK AO2 SLP090 T02720261 58008
PGUM 181354Z 04003KT 10SM CLR 28/27 A2984 RMK AO2 SLP096 T02780267 403220261
PGUM 181254Z 05003KT 10SM CLR 28/26 A2984 RMK AO2 SLP098 T02780261
PGUM 181154Z 08003KT 10SM CLR 29/27 A2985 RMK AO2 SLP099 T02890267 10311 20283 53013
PGUM 181054Z 05003KT 10SM CLR 28/26 A2983 RMK AO2 SLP094 T02830261
PGUM 180954Z 09004KT 10SM CLR 29/27 A2982 RMK AO2 SLP090 T02890267